Time;durP1;ratioP1;P1;durP2;ratioP2;P2;SDS_P1;SDS_P2;PMS_P1;PMS_P2;Temp;Humidity;BMP_temperature;BMP_pressure;BME280_temperature;BME280_humidity;BME280_pressure;Samples;Min_cycle;Max_cycle;Signal;HPM_P1;HPM_P2
2022/01/06 00:01:45;;;;;;;2.10;1.13;;;;;;;4.07;82.74;101718.19;4972748;28;113637;-42
2022/01/06 00:04:11;;;;;;;1.08;0.40;;;;;;;4.08;82.89;101709.25;4972892;28;119569;-42
2022/01/06 00:06:39;;;;;;;2.47;0.38;;;;;;;4.09;83.36;101712.81;4973561;28;98376;-42
2022/01/06 00:09:07;;;;;;;0.75;0.50;;;;;;;4.09;83.32;101711.00;4972548;28;96615;-42
2022/01/06 00:11:33;;;;;;;0.03;0.03;;;;;;;4.07;83.32;101718.19;4972083;28;96788;-42
2022/01/06 00:24:22;;;;;;;0.20;0.20;;;;;;;4.06;83.16;101734.34;4973363;28;97099;-42
2022/01/06 00:26:48;;;;;;;1.27;0.63;;;;;;;4.07;83.22;101742.31;4973291;28;98739;-42
2022/01/06 00:29:14;;;;;;;6.75;0.22;;;;;;;4.02;83.64;101738.84;4973065;28;96493;-42
2022/01/06 00:31:40;;;;;;;1.67;0.65;;;;;;;3.93;83.72;101712.22;4971872;28;96725;-42
2022/01/06 00:34:10;;;;;;;0.10;0.10;;;;;;;4.00;83.84;101725.50;4972242;28;103916;-42
2022/01/06 00:36:35;;;;;;;1.83;0.38;;;;;;;3.98;83.30;101723.75;4972870;28;97896;-42
2022/01/06 00:39:00;;;;;;;2.85;0.60;;;;;;;4.06;83.78;101740.56;4973174;28;96453;-42
2022/01/06 00:41:25;;;;;;;3.10;0.40;;;;;;;3.95;83.28;101719.31;4973275;28;96736;-42
2022/01/06 00:43:51;;;;;;;0.63;0.30;;;;;;;4.04;83.41;101743.28;4972014;28;126272;-42
2022/01/06 00:46:16;;;;;;;1.08;0.50;;;;;;;3.88;83.46;101722.16;4972995;28;97858;-42
2022/01/06 00:48:41;;;;;;;0.65;0.40;;;;;;;4.01;82.93;101747.81;4972327;28;108264;-42
2022/01/06 00:51:09;;;;;;;3.63;0.82;;;;;;;3.84;83.44;101726.72;4973079;28;96768;-42
2022/01/06 00:53:34;;;;;;;3.80;0.47;;;;;;;3.88;83.67;101736.44;4972491;28;99290;-41
2022/01/06 00:56:00;;;;;;;0.20;0.20;;;;;;;3.91;83.69;101749.81;4972701;28;97696;-42
2022/01/06 00:58:25;;;;;;;1.05;0.57;;;;;;;3.79;83.42;101732.16;4972546;28;96577;-42
2022/01/06 01:00:50;;;;;;;1.08;0.47;;;;;;;3.85;83.34;101749.91;4971974;28;122389;-42
2022/01/06 01:03:20;;;;;;;1.15;0.40;;;;;;;3.74;83.55;101728.69;4971857;28;100980;-42
2022/01/06 01:05:48;;;;;;;0.20;0.10;;;;;;;3.72;83.75;101740.31;4971149;28;100862;-42
2022/01/06 01:08:13;;;;;;;0.73;0.10;;;;;;;3.78;83.77;101749.13;4955036;28;96640;-42
2022/01/06 01:10:40;;;;;;;0.88;0.25;;;;;;;3.74;83.92;101750.13;4972888;28;96756;-42
2022/01/06 01:13:13;;;;;;;0.65;0.38;;;;;;;3.71;83.81;101751.97;4970949;28;101097;-42
2022/01/06 01:15:50;;;;;;;0.77;0.15;;;;;;;3.73;84.02;101761.75;4972823;28;99337;-42
2022/01/06 01:18:19;;;;;;;23.02;1.63;;;;;;;3.64;84.00;101753.88;4972444;28;96475;-42
2022/01/06 01:20:45;;;;;;;0.05;0.05;;;;;;;3.67;84.23;101774.34;4971115;28;96758;-42
2022/01/06 01:23:10;;;;;;;0.43;0.15;;;;;;;3.51;83.80;101752.34;4970300;28;101307;-42
2022/01/06 01:25:35;;;;;;;0.82;0.43;;;;;;;3.50;83.92;101766.63;4971314;28;127116;-42
2022/01/06 01:28:03;;;;;;;0.28;0.10;;;;;;;3.53;83.93;101786.22;4972147;28;96571;-42
2022/01/06 01:30:32;;;;;;;0.13;0.10;;;;;;;3.50;83.92;101788.06;4970043;28;96858;-42
2022/01/06 01:32:59;;;;;;;6.18;0.35;;;;;;;3.47;84.15;101782.75;4970791;28;101259;-42
2022/01/06 01:35:30;;;;;;;0.45;0.28;;;;;;;3.35;84.00;101770.47;4972345;28;97811;-42
2022/01/06 01:37:56;;;;;;;0.20;0.10;;;;;;;3.39;84.52;101782.91;4971056;28;96526;-42
2022/01/06 01:40:21;;;;;;;0.20;0.15;;;;;;;3.38;84.31;101776.66;4973030;28;96879;-42
2022/01/06 01:42:46;;;;;;;0.10;0.08;;;;;;;3.43;84.21;101781.91;4970949;28;126805;-42
2022/01/06 01:45:12;;;;;;;2.65;0.57;;;;;;;3.47;84.27;101794.34;4971313;28;126571;-42
2022/01/06 01:47:40;;;;;;;0.52;0.50;;;;;;;3.31;84.62;101768.72;4971126;28;113424;-42
2022/01/06 01:50:15;;;;;;;0.17;0.15;;;;;;;3.32;84.71;101774.06;4972082;28;96758;-42
2022/01/06 01:52:43;;;;;;;0.98;0.03;;;;;;;3.14;84.35;101752.94;4970658;28;100835;-42
2022/01/06 01:55:11;;;;;;;0.88;0.22;;;;;;;3.27;83.97;101781.31;4970597;28;101052;-42
2022/01/06 01:57:36;;;;;;;0.70;0.55;;;;;;;3.25;84.53;101785.78;4971832;28;96722;-42
2022/01/06 02:00:07;;;;;;;1.15;0.13;;;;;;;3.34;84.41;101803.50;4972015;28;96494;-43
2022/01/06 02:02:33;;;;;;;5.50;0.13;;;;;;;3.32;84.17;101808.88;4971756;28;98481;-42
2022/01/06 02:04:58;;;;;;;4.25;0.10;;;;;;;3.29;84.21;101806.25;4972010;28;107826;-42
2022/01/06 02:07:23;;;;;;;3.95;0.47;;;;;;;3.11;84.03;101782.44;4971971;28;102550;-42
2022/01/06 02:09:49;;;;;;;4.47;1.25;;;;;;;3.22;84.40;101801.00;4972153;28;96809;-42
2022/01/06 02:12:30;;;;;;;1.45;0.17;;;;;;;3.23;84.67;101811.69;4971330;28;97994;-42
2022/01/06 02:14:57;;;;;;;3.00;0.77;;;;;;;3.19;84.23;101799.25;4970385;28;101015;-42
2022/01/06 02:17:22;;;;;;;4.93;0.70;;;;;;;3.17;84.46;101793.94;4970636;28;96744;-42
2022/01/06 02:19:53;;;;;;;2.70;0.52;;;;;;;3.18;84.49;101811.78;4971737;28;96813;-41
2022/01/06 02:22:18;;;;;;;0.90;0.13;;;;;;;3.24;84.45;101818.81;4971664;28;97895;-42
2022/01/06 02:24:44;;;;;;;0.00;0.00;;;;;;;3.24;84.09;101825.97;4971866;28;97848;-42
2022/01/06 02:27:09;;;;;;;0.38;0.32;;;;;;;3.22;84.45;101828.69;4971591;28;101749;-42
2022/01/06 02:29:34;;;;;;;0.10;0.08;;;;;;;3.06;84.38;101808.41;4969800;28;122846;-42
2022/01/06 02:31:59;;;;;;;0.10;0.08;;;;;;;3.00;84.04;101804.00;4971406;28;99500;-41
2022/01/06 02:34:25;;;;;;;0.25;0.25;;;;;;;3.12;84.65;101824.34;4971624;28;97828;-41
2022/01/06 02:36:50;;;;;;;0.75;0.38;;;;;;;3.04;84.48;101821.81;4970467;28;123100;-42
2022/01/06 02:39:15;;;;;;;0.65;0.43;;;;;;;3.07;84.62;101831.56;4970648;28;122477;-42
2022/01/06 02:41:41;;;;;;;0.38;0.30;;;;;;;3.01;84.29;101827.22;4974208;28;103344;-42
2022/01/06 02:44:06;;;;;;;2.35;0.40;;;;;;;2.88;84.33;101810.41;4974886;28;98377;-42
2022/01/06 02:46:31;;;;;;;0.28;0.28;;;;;;;2.97;84.64;101830.81;4974923;28;96569;-42
2022/01/06 02:48:57;;;;;;;0.45;0.20;;;;;;;2.87;84.39;101824.72;4974615;28;96881;-42
2022/01/06 02:51:22;;;;;;;0.15;0.15;;;;;;;2.92;84.83;101841.59;4974424;28;99898;-42
2022/01/06 02:53:52;;;;;;;0.28;0.25;;;;;;;2.92;84.64;101844.28;4972770;28;121343;-42
2022/01/06 02:56:17;;;;;;;1.90;0.52;;;;;;;2.82;84.85;101841.75;4973126;28;96728;-42
2022/01/06 02:58:43;;;;;;;0.13;0.05;;;;;;;2.83;84.57;101848.84;4974715;28;96766;-42
2022/01/06 03:01:08;;;;;;;3.00;0.28;;;;;;;2.73;84.73;101821.34;4974277;28;97258;-42
2022/01/06 03:03:33;;;;;;;0.10;0.00;;;;;;;2.74;84.59;101840.06;4972363;28;108333;-42
2022/01/06 03:05:58;;;;;;;0.00;0.00;;;;;;;2.72;84.42;101843.66;4973710;28;121150;-41
2022/01/06 03:08:25;;;;;;;0.20;0.10;;;;;;;2.79;84.82;101857.81;4972686;28;104872;-42
2022/01/06 03:10:51;;;;;;;0.82;0.25;;;;;;;2.67;85.14;101848.16;4974285;28;98013;-42
2022/01/06 03:13:16;;;;;;;1.10;0.68;;;;;;;2.63;84.78;101841.09;4974274;28;99774;-42
2022/01/06 03:15:41;;;;;;;1.20;0.70;;;;;;;2.63;85.38;101844.66;4973704;28;120806;-42
2022/01/06 03:18:06;;;;;;;0.85;0.17;;;;;;;2.78;85.09;101864.97;4973780;28;122340;-42
2022/01/06 03:20:34;;;;;;;11.23;0.47;;;;;;;2.72;85.31;101852.56;4973571;28;125506;-42
2022/01/06 03:23:00;;;;;;;0.10;0.10;;;;;;;2.76;84.92;101857.00;4972540;28;100795;-42
2022/01/06 03:25:25;;;;;;;0.08;0.08;;;;;;;2.76;85.29;101857.00;4972329;28;96847;-42
2022/01/06 03:27:51;;;;;;;0.55;0.30;;;;;;;2.68;84.73;101836.59;4974079;28;96846;-42
2022/01/06 03:30:18;;;;;;;0.80;0.30;;;;;;;2.85;84.96;101858.63;4972560;28;100770;-42
2022/01/06 03:32:44;;;;;;;0.10;0.10;;;;;;;2.82;85.22;101849.78;4972633;28;101128;-42
2022/01/06 03:35:13;;;;;;;0.25;0.25;;;;;;;2.76;84.88;101840.94;4972649;28;96651;-42
2022/01/06 03:37:39;;;;;;;0.52;0.30;;;;;;;2.69;85.23;101832.97;4972545;28;96857;-42
2022/01/06 03:40:06;;;;;;;0.08;0.08;;;;;;;2.76;84.55;101857.00;4972353;28;100755;-42
2022/01/06 03:42:32;;;;;;;0.68;0.50;;;;;;;2.58;84.61;101846.50;4972655;28;101845;-42
2022/01/06 03:44:59;;;;;;;0.20;0.13;;;;;;;2.66;84.82;101867.81;4972551;28;96711;-42
2022/01/06 03:47:24;;;;;;;5.85;0.52;;;;;;;2.64;85.16;101864.25;4973880;28;96723;-42
2022/01/06 03:49:49;;;;;;;0.90;0.68;;;;;;;2.46;84.84;101849.34;4972337;28;115713;-42
2022/01/06 03:52:14;;;;;;;9.88;0.75;;;;;;;2.45;84.72;101852.91;4972348;28;110548;-42
2022/01/06 03:54:40;;;;;;;0.40;0.38;;;;;;;2.51;84.98;101866.22;4973295;28;110342;-42
2022/01/06 03:57:05;;;;;;;0.43;0.43;;;;;;;2.48;84.72;101861.78;4973259;28;107286;-42
2022/01/06 03:59:30;;;;;;;0.15;0.08;;;;;;;2.44;85.23;101877.88;4973681;28;98122;-42
2022/01/06 04:01:56;;;;;;;0.60;0.40;;;;;;;2.45;84.97;101884.97;4972822;28;99241;-42
2022/01/06 04:04:21;;;;;;;0.00;0.00;;;;;;;2.48;85.31;101904.56;4973688;28;96559;-41
2022/01/06 04:06:49;;;;;;;2.17;0.95;;;;;;;2.45;85.68;101907.25;4973683;28;99900;-42
2022/01/06 04:09:14;;;;;;;0.55;0.52;;;;;;;2.55;85.62;101908.94;4972583;28;127257;-42
2022/01/06 04:11:40;;;;;;;4.93;0.30;;;;;;;2.72;85.98;101923.91;4972924;28;113507;-42
2022/01/06 04:14:05;;;;;;;0.13;0.10;;;;;;;2.71;85.87;101906.06;4972961;28;98172;-42
2022/01/06 04:16:35;;;;;;;0.10;0.10;;;;;;;2.71;85.54;101888.22;4973186;28;103749;-42
2022/01/06 04:19:01;;;;;;;1.00;0.10;;;;;;;2.82;85.30;101896.13;4973117;28;98916;-42
2022/01/06 04:21:26;;;;;;;0.00;0.00;;;;;;;2.96;84.92;101902.19;4971860;28;100826;-42
2022/01/06 04:23:51;;;;;;;0.00;0.00;;;;;;;2.89;85.20;101883.56;4972953;28;108566;-42
2022/01/06 04:26:16;;;;;;;0.88;0.35;;;;;;;3.03;85.30;101899.41;4973382;28;96806;-42
2022/01/06 04:28:42;;;;;;;0.00;0.00;;;;;;;3.02;85.21;101892.31;4972352;28;122443;-42
2022/01/06 04:31:08;;;;;;;0.00;0.00;;;;;;;3.03;85.52;101899.41;4973580;28;97976;-42
2022/01/06 04:33:34;;;;;;;0.30;0.13;;;;;;;3.04;85.62;101891.38;4973274;28;96582;-42
2022/01/06 04:36:01;;;;;;;0.00;0.00;;;;;;;3.11;85.05;101909.13;4973040;28;96898;-42
2022/01/06 04:38:27;;;;;;;1.15;0.25;;;;;;;3.00;84.80;101883.41;4971153;28;100818;-42
2022/01/06 04:40:52;;;;;;;0.00;0.00;;;;;;;3.00;84.92;101884.28;4972770;28;99290;-42
2022/01/06 04:43:17;;;;;;;0.10;0.05;;;;;;;3.03;85.04;101886.03;4973172;28;96760;-42
2022/01/06 04:45:43;;;;;;;0.10;0.03;;;;;;;3.14;85.26;101898.38;4972813;28;96811;-42
2022/01/06 04:48:08;;;;;;;0.15;0.10;;;;;;;3.18;85.35;101908.16;4972981;28;98014;-42
2022/01/06 04:50:34;;;;;;;0.00;0.00;;;;;;;3.21;85.62;101909.88;4972296;28;97852;-42
2022/01/06 04:52:59;;;;;;;1.33;0.08;;;;;;;3.19;85.25;101901.91;4972485;28;111324;-42
2022/01/06 04:55:24;;;;;;;7.68;0.28;;;;;;;3.14;85.01;101900.16;4973414;28;96863;-42
2022/01/06 04:57:50;;;;;;;0.00;0.00;;;;;;;3.17;85.11;101905.47;4971881;28;123098;-42
2022/01/06 05:00:15;;;;;;;0.13;0.10;;;;;;;3.13;85.00;101906.44;4972502;28;99120;-42
2022/01/06 05:02:40;;;;;;;0.82;0.43;;;;;;;3.12;85.04;101912.69;4971691;28;96782;-42
2022/01/06 05:05:06;;;;;;;0.00;0.00;;;;;;;3.07;85.58;101918.09;4972788;28;96799;-42
2022/01/06 05:07:32;;;;;;;1.13;0.32;;;;;;;3.03;85.65;101923.50;4971152;28;101242;-42
2022/01/06 05:09:57;;;;;;;0.00;0.00;;;;;;;3.00;85.75;101927.13;4971151;28;100608;-42
2022/01/06 05:12:23;;;;;;;0.50;0.08;;;;;;;2.82;85.44;101904.16;4972736;28;96531;-42
2022/01/06 05:14:48;;;;;;;1.88;0.38;;;;;;;2.83;85.37;101924.66;4971243;28;96848;-42
2022/01/06 05:17:13;;;;;;;1.45;0.30;;;;;;;2.88;86.03;101933.50;4971037;28;100901;-42
2022/01/06 05:19:39;;;;;;;0.00;0.00;;;;;;;2.72;85.89;101913.22;4971699;28;125942;-42
2022/01/06 05:22:04;;;;;;;0.00;0.00;;;;;;;2.65;85.65;101904.38;4972645;28;96516;-42
2022/01/06 05:24:30;;;;;;;2.45;0.28;;;;;;;2.64;85.60;101915.97;4972266;28;96782;-42
2022/01/06 05:27:10;;;;;;;0.00;0.00;;;;;;;2.67;86.07;101921.28;4971958;28;97872;-42
2022/01/06 05:29:36;;;;;;;0.00;0.00;;;;;;;2.64;85.92;101920.44;4972301;28;97964;-42
2022/01/06 05:32:02;;;;;;;0.20;0.10;;;;;;;2.68;86.05;101930.19;4971073;28;96527;-42
2022/01/06 05:34:27;;;;;;;5.57;0.40;;;;;;;2.66;85.56;101915.94;4972150;28;96797;-42
2022/01/06 05:36:52;;;;;;;0.00;0.00;;;;;;;2.75;85.93;101935.44;4971867;28;112731;-42
2022/01/06 05:39:18;;;;;;;0.25;0.13;;;;;;;2.62;86.14;101909.78;4971509;28;126655;-42
2022/01/06 05:41:45;;;;;;;3.38;0.38;;;;;;;2.62;85.84;101909.78;4971987;28;104230;-42
2022/01/06 05:44:10;;;;;;;0.10;0.08;;;;;;;2.66;86.13;101921.31;4971041;28;96887;-42
2022/01/06 05:46:36;;;;;;;0.05;0.05;;;;;;;2.70;86.08;101925.72;4970440;28;100486;-42
2022/01/06 05:49:01;;;;;;;0.00;0.00;;;;;;;2.61;86.50;101907.09;4972158;28;97802;-42
2022/01/06 05:51:26;;;;;;;0.28;0.08;;;;;;;2.72;86.30;101937.28;4971631;28;96477;-42
2022/01/06 05:53:53;;;;;;;0.57;0.40;;;;;;;2.71;86.63;101939.06;4971338;28;121617;-42
2022/01/06 05:56:19;;;;;;;0.38;0.28;;;;;;;2.72;86.23;101954.22;4971709;28;97931;-42
2022/01/06 05:58:44;;;;;;;0.00;0.00;;;;;;;2.68;86.18;101952.47;4972408;28;97130;-42
2022/01/06 06:01:09;;;;;;;0.00;0.00;;;;;;;2.60;86.19;101943.66;4971109;28;121699;-42
2022/01/06 06:03:41;;;;;;;0.25;0.10;;;;;;;2.66;86.07;101953.41;4971348;28;111634;-42
2022/01/06 06:06:06;;;;;;;0.00;0.00;;;;;;;2.48;86.45;101939.34;4971107;28;125978;-42
2022/01/06 06:08:31;;;;;;;0.00;0.00;;;;;;;2.47;86.65;101940.22;4972442;28;97746;-42
2022/01/06 06:10:56;;;;;;;0.10;0.10;;;;;;;2.41;86.31;101929.59;4971092;28;120274;-42
2022/01/06 06:13:22;;;;;;;0.00;0.00;;;;;;;2.50;86.53;101958.94;4971126;28;121507;-42
2022/01/06 06:15:48;;;;;;;0.10;0.00;;;;;;;2.49;86.41;101964.28;4972602;28;99218;-42
2022/01/06 06:18:14;;;;;;;0.10;0.10;;;;;;;2.33;86.38;101944.81;4975237;28;97781;-42
2022/01/06 06:20:40;;;;;;;0.20;0.10;;;;;;;2.40;86.32;101962.56;4975381;28;96476;-42
2022/01/06 06:23:06;;;;;;;0.00;0.00;;;;;;;2.37;86.29;101967.97;4973804;28;96841;-42
2022/01/06 06:25:32;;;;;;;3.30;0.80;;;;;;;2.22;86.42;101952.94;4975248;28;98016;-42
2022/01/06 06:27:57;;;;;;;0.10;0.08;;;;;;;2.33;85.98;101982.25;4973571;28;100929;-42
2022/01/06 06:30:23;;;;;;;0.15;0.05;;;;;;;2.27;86.35;101983.19;4974612;28;96722;-42
2022/01/06 06:32:48;;;;;;;0.00;0.00;;;;;;;2.20;86.24;101978.81;4975348;28;96785;-42
2022/01/06 06:35:14;;;;;;;0.52;0.15;;;;;;;2.26;86.43;101997.44;4974671;28;105802;-42
2022/01/06 06:37:39;;;;;;;0.00;0.00;;;;;;;2.11;85.71;101973.53;4973400;28;100733;-42
2022/01/06 06:40:06;;;;;;;0.00;0.00;;;;;;;2.16;86.06;101992.22;4974703;28;96810;-42
2022/01/06 06:42:31;;;;;;;0.03;0.03;;;;;;;2.17;86.39;101993.97;4973339;28;98418;-42
2022/01/06 06:44:56;;;;;;;0.00;0.00;;;;;;;2.10;85.98;101996.72;4974475;28;99312;-42
2022/01/06 06:47:22;;;;;;;0.15;0.15;;;;;;;2.07;86.15;101999.41;4974964;28;97862;-41
2022/01/06 06:49:47;;;;;;;0.25;0.22;;;;;;;2.09;86.15;102004.72;4974996;28;96471;-42
2022/01/06 06:52:13;;;;;;;0.10;0.10;;;;;;;2.06;86.00;102010.09;4974677;28;96799;-42
2022/01/06 06:54:38;;;;;;;0.00;0.00;;;;;;;2.03;86.02;102019.03;4974584;28;97576;-42
2022/01/06 06:57:04;;;;;;;0.35;0.25;;;;;;;1.97;86.37;102000.34;4974573;28;98889;-42
2022/01/06 06:59:29;;;;;;;0.25;0.15;;;;;;;1.94;85.97;102003.06;4974795;28;96463;-42
2022/01/06 07:01:55;;;;;;;0.22;0.15;;;;;;;1.80;85.97;101980.91;4974326;28;96884;-42
2022/01/06 07:04:20;;;;;;;0.85;0.38;;;;;;;1.97;86.22;102012.84;4974136;28;97476;-42
2022/01/06 07:06:46;;;;;;;0.08;0.08;;;;;;;1.93;86.14;101998.59;4974737;28;97287;-42
2022/01/06 07:09:11;;;;;;;0.10;0.10;;;;;;;1.81;86.35;101983.56;4974575;28;96469;-42
2022/01/06 07:11:37;;;;;;;0.20;0.20;;;;;;;1.89;86.17;102005.75;4974592;28;96830;-42
2022/01/06 07:14:02;;;;;;;1.08;0.20;;;;;;;1.89;86.08;102007.56;4974296;28;97859;-42
2022/01/06 07:16:27;;;;;;;0.32;0.20;;;;;;;1.85;85.81;102009.34;4974003;28;106527;-42
2022/01/06 07:18:52;;;;;;;0.45;0.45;;;;;;;1.74;86.02;102003.22;4974644;28;96534;-42
2022/01/06 07:21:18;;;;;;;0.93;0.65;;;;;;;1.72;86.23;101998.75;4974155;28;109694;-42
2022/01/06 07:23:43;;;;;;;0.20;0.20;;;;;;;1.81;86.00;102020.97;4973863;28;106306;-42
2022/01/06 07:26:08;;;;;;;0.88;0.28;;;;;;;1.58;86.26;101989.06;4973454;28;100467;-42
2022/01/06 07:28:34;;;;;;;0.15;0.08;;;;;;;1.76;86.00;102027.22;4973051;28;99775;-42
2022/01/06 07:30:59;;;;;;;1.25;0.68;;;;;;;1.72;86.01;102018.34;4974164;28;96624;-42
2022/01/06 07:33:25;;;;;;;0.28;0.28;;;;;;;1.67;86.29;102014.81;4973874;28;99040;-42
2022/01/06 07:35:50;;;;;;;0.10;0.08;;;;;;;1.61;86.04;102005.03;4974139;28;97300;-42
2022/01/06 07:38:17;;;;;;;0.00;0.00;;;;;;;1.71;86.18;102021.91;4974181;28;96620;-42
2022/01/06 07:40:43;;;;;;;0.20;0.20;;;;;;;1.64;85.91;102018.38;4974052;28;96778;-42
2022/01/06 07:43:08;;;;;;;0.25;0.25;;;;;;;1.69;86.22;102032.63;4977444;28;97263;-42
2022/01/06 07:45:33;;;;;;;0.57;0.30;;;;;;;1.64;86.29;102023.72;4973501;28;116264;-42
2022/01/06 07:48:03;;;;;;;0.45;0.22;;;;;;;1.61;86.38;102026.41;4973980;28;96473;-42
2022/01/06 07:50:31;;;;;;;0.45;0.45;;;;;;;1.64;86.42;102037.06;4973651;28;96715;-42
2022/01/06 07:52:57;;;;;;;0.25;0.15;;;;;;;1.57;86.56;102021.09;4971763;28;100388;-42
2022/01/06 07:55:22;;;;;;;0.20;0.20;;;;;;;1.66;86.28;102039.75;4971795;28;101186;-42
2022/01/06 07:57:48;;;;;;;7.55;0.40;;;;;;;1.56;86.14;102025.56;4973315;28;96929;-42
2022/01/06 08:00:14;;;;;;;0.30;0.25;;;;;;;1.42;86.27;102004.25;4972272;28;96634;-42
2022/01/06 08:02:39;;;;;;;2.05;0.40;;;;;;;1.54;86.74;102021.13;4971720;28;102323;-42
2022/01/06 08:05:09;;;;;;;0.73;0.38;;;;;;;1.60;86.48;102026.44;4972045;28;100941;-42
2022/01/06 08:07:34;;;;;;;0.32;0.32;;;;;;;1.74;86.27;102050.38;4972080;28;96589;-42
2022/01/06 08:09:59;;;;;;;0.95;0.50;;;;;;;1.75;86.52;102054.84;4973902;28;106417;-42
2022/01/06 08:12:24;;;;;;;0.80;0.77;;;;;;;1.80;86.14;102063.72;4972912;28;108722;-42
2022/01/06 08:14:50;;;;;;;0.10;0.05;;;;;;;1.79;86.75;102062.81;4972436;28;126664;-42
2022/01/06 08:17:15;;;;;;;1.35;0.93;;;;;;;1.78;86.76;102050.34;4972812;28;96430;-42
2022/01/06 08:19:41;;;;;;;3.88;0.50;;;;;;;1.82;86.83;102044.09;4973160;28;96803;-42
2022/01/06 08:22:06;;;;;;;0.22;0.15;;;;;;;1.76;86.95;102030.78;4972991;28;99293;-42
2022/01/06 08:24:33;;;;;;;0.65;0.50;;;;;;;2.00;86.62;102069.84;4972373;28;117207;-42
2022/01/06 08:26:58;;;;;;;2.05;0.75;;;;;;;1.96;86.14;102053.81;4971683;28;96759;-42
2022/01/06 08:29:23;;;;;;;0.73;0.38;;;;;;;1.96;86.73;102054.72;4973120;28;96864;-42
2022/01/06 08:31:48;;;;;;;0.32;0.22;;;;;;;2.07;86.25;102073.31;4972491;28;116822;-42
2022/01/06 08:34:14;;;;;;;0.68;0.52;;;;;;;2.17;86.52;102079.50;4972617;28;119879;-42
2022/01/06 08:36:39;;;;;;;0.35;0.32;;;;;;;2.04;86.46;102058.19;4973029;28;96497;-42
2022/01/06 08:39:04;;;;;;;0.30;0.20;;;;;;;2.15;86.13;102071.50;4971685;28;121404;-42
2022/01/06 08:41:30;;;;;;;0.73;0.50;;;;;;;2.08;86.34;102057.28;4972180;28;110178;-42
2022/01/06 08:43:55;;;;;;;0.10;0.10;;;;;;;2.07;86.12;102055.53;4972666;28;97526;-42
2022/01/06 08:46:20;;;;;;;0.00;0.00;;;;;;;2.16;86.47;102064.38;4972691;28;103025;-42
2022/01/06 08:48:46;;;;;;;0.57;0.30;;;;;;;2.23;86.07;102083.00;4972734;28;98856;-42
2022/01/06 08:51:11;;;;;;;0.47;0.47;;;;;;;2.28;86.41;102074.97;4972395;28;107878;-42
2022/01/06 08:53:37;;;;;;;3.42;0.20;;;;;;;2.23;86.20;102063.44;4972926;28;97750;-42
2022/01/06 08:56:03;;;;;;;1.55;0.38;;;;;;;2.12;86.02;102035.00;4971621;28;121587;-42
2022/01/06 08:58:28;;;;;;;0.20;0.20;;;;;;;2.36;86.29;102075.81;4973287;28;96782;-42
2022/01/06 09:00:53;;;;;;;1.92;0.45;;;;;;;2.22;85.62;102042.97;4972704;28;97992;-42
2022/01/06 09:03:19;;;;;;;1.13;0.25;;;;;;;2.34;86.09;102061.56;4971396;28;117376;-42
2022/01/06 09:05:44;;;;;;;1.38;0.73;;;;;;;2.47;86.10;102087.28;4972238;28;96612;-42
2022/01/06 09:08:09;;;;;;;0.28;0.05;;;;;;;2.45;86.30;102083.72;4972001;28;118501;-42
2022/01/06 09:10:36;;;;;;;0.05;0.05;;;;;;;2.44;86.21;102076.63;4972135;28;111539;-42
2022/01/06 09:13:02;;;;;;;0.00;0.00;;;;;;;2.52;86.58;102074.75;4970980;28;100768;-42
2022/01/06 09:15:28;;;;;;;0.32;0.28;;;;;;;2.43;86.59;102060.59;4971327;28;96659;-42
2022/01/06 09:17:53;;;;;;;1.17;0.28;;;;;;;2.42;86.44;102051.69;4971236;28;96780;-42
2022/01/06 09:20:18;;;;;;;0.20;0.10;;;;;;;2.65;86.21;102075.56;4972586;28;97897;-42
2022/01/06 09:22:45;;;;;;;3.40;0.63;;;;;;;2.63;86.48;102060.44;4972399;28;108044;-42
2022/01/06 09:25:13;;;;;;;0.20;0.20;;;;;;;2.83;86.22;102077.16;4971065;28;96562;-42
2022/01/06 09:27:40;;;;;;;9.30;0.90;;;;;;;2.83;86.32;102063.78;4970989;28;96918;-42
2022/01/06 09:30:06;;;;;;;0.70;0.57;;;;;;;3.05;86.15;102085.88;4970431;28;100999;-42
2022/01/06 09:32:33;;;;;;;0.20;0.20;;;;;;;3.12;85.68;102089.34;4970793;28;101191;-42
2022/01/06 09:34:59;;;;;;;1.60;0.75;;;;;;;3.05;86.08;102068.91;4970962;28;96609;-42
2022/01/06 09:37:25;;;;;;;0.00;0.00;;;;;;;3.10;85.97;102067.06;4972288;28;96960;-42
2022/01/06 09:39:50;;;;;;;1.85;0.45;;;;;;;3.06;86.08;102060.00;4971934;28;99393;-42
2022/01/06 09:42:18;;;;;;;0.77;0.57;;;;;;;3.13;85.79;102075.97;4972150;28;97888;-42
2022/01/06 09:44:44;;;;;;;0.22;0.22;;;;;;;3.09;86.13;102065.31;4970968;28;96522;-42
2022/01/06 09:47:09;;;;;;;0.77;0.47;;;;;;;3.22;85.92;102082.13;4972688;28;96739;-42
2022/01/06 09:49:37;;;;;;;0.93;0.38;;;;;;;3.27;86.03;102086.53;4970723;28;101124;-42
2022/01/06 09:52:05;;;;;;;0.20;0.10;;;;;;;3.27;85.97;102088.34;4975319;28;97832;-42
2022/01/06 09:54:30;;;;;;;0.40;0.13;;;;;;;3.29;85.99;102095.44;4973613;28;96900;-42
2022/01/06 09:56:55;;;;;;;0.73;0.43;;;;;;;3.18;85.72;102082.16;4975565;28;96764;-42
2022/01/06 09:59:21;;;;;;;0.20;0.20;;;;;;;3.19;86.22;102083.03;4975564;28;100368;-42
2022/01/06 10:01:46;;;;;;;2.30;0.77;;;;;;;3.31;86.17;102103.44;4973999;28;118249;-42
2022/01/06 10:04:30;;;;;;;0.30;0.30;;;;;;;3.36;86.13;102101.59;4973522;28;112469;-42
2022/01/06 10:07:05;;;;;;;0.38;0.25;;;;;;;3.48;86.32;102111.28;4975487;28;96556;-42
2022/01/06 10:09:34;;;;;;;1.75;0.63;;;;;;;3.59;85.66;102104.00;4975319;28;98009;-42
2022/01/06 10:12:03;;;;;;;6.63;0.38;;;;;;;3.70;85.33;102096.72;4974137;28;99812;-41
2022/01/06 10:14:44;;;;;;;0.10;0.10;;;;;;;3.68;85.62;102065.50;4974013;28;96542;-42
2022/01/06 10:17:12;;;;;;;4.87;0.47;;;;;;;4.03;85.57;102100.75;4975736;28;96676;-42
2022/01/06 10:19:45;;;;;;;0.60;0.30;;;;;;;4.17;85.62;102092.50;4973128;28;100822;-42
2022/01/06 10:22:18;;;;;;;0.50;0.32;;;;;;;4.16;85.56;102065.69;4973679;28;100802;-42
2022/01/06 10:24:46;;;;;;;0.08;0.08;;;;;;;4.43;85.30;102093.88;4973831;28;96646;-42
2022/01/06 10:27:14;;;;;;;2.10;0.38;;;;;;;4.56;85.31;102086.53;4973829;28;96824;-42
2022/01/06 10:29:43;;;;;;;0.95;0.45;;;;;;;4.63;84.37;102083.72;4973443;28;103996;-42
2022/01/06 10:32:31;;;;;;;0.40;0.22;;;;;;;4.62;83.91;102067.63;4973626;28;101084;-42
2022/01/06 10:35:02;;;;;;;3.40;0.15;;;;;;;4.78;83.93;102089.72;4975378;28;96630;-42
2022/01/06 10:37:30;;;;;;;0.70;0.28;;;;;;;4.82;84.15;102084.28;4973958;28;96847;-41
2022/01/06 10:40:06;;;;;;;0.70;0.43;;;;;;;4.73;83.73;102065.66;4973444;28;100852;-42
2022/01/06 10:42:33;;;;;;;6.13;0.30;;;;;;;4.85;84.01;102086.03;4973340;28;102874;-42
2022/01/06 10:45:08;;;;;;;0.82;0.20;;;;;;;4.77;83.65;102067.38;4974343;28;96633;-42
2022/01/06 10:47:38;;;;;;;4.90;0.30;;;;;;;4.78;83.96;102057.53;4973514;28;96702;-42
2022/01/06 10:50:33;;;;;;;0.98;0.55;;;;;;;4.91;83.85;102083.25;4974264;28;98137;-42
2022/01/06 10:53:06;;;;;;;0.05;0.05;;;;;;;4.88;83.76;102085.97;4972723;28;101339;-42
2022/01/06 10:55:37;;;;;;;0.22;0.10;;;;;;;4.75;83.97;102063.81;4973448;28;96688;-42
2022/01/06 10:58:02;;;;;;;3.15;0.68;;;;;;;4.90;84.06;102100.25;4973242;28;96906;-42
2022/01/06 11:00:34;;;;;;;1.15;0.40;;;;;;;4.80;84.11;102070.00;4974244;28;99403;-42
2022/01/06 11:03:12;;;;;;;2.97;0.93;;;;;;;4.83;84.40;102082.47;4974335;28;99163;-42
2022/01/06 11:05:40;;;;;;;0.25;0.22;;;;;;;4.67;84.16;102055.91;4973294;28;96616;-42
2022/01/06 11:08:07;;;;;;;0.20;0.20;;;;;;;4.72;84.05;102066.56;4973207;28;96971;-42
2022/01/06 11:10:39;;;;;;;0.70;0.43;;;;;;;4.84;84.57;102085.13;4972419;28;100828;-42
2022/01/06 11:13:06;;;;;;;0.00;0.00;;;;;;;4.83;84.19;102090.53;4972876;28;100786;-42
2022/01/06 11:15:32;;;;;;;3.05;0.88;;;;;;;4.75;83.81;102076.38;4973047;28;96689;-42
2022/01/06 11:18:00;;;;;;;0.13;0.05;;;;;;;4.81;83.67;102079.81;4974413;28;96899;-42
2022/01/06 11:20:27;;;;;;;3.72;0.52;;;;;;;4.89;83.41;102093.13;4972798;28;100784;-42
2022/01/06 11:22:55;;;;;;;0.05;0.03;;;;;;;4.87;83.75;102087.75;4972630;28;100726;-42
2022/01/06 11:25:34;;;;;;;2.47;0.50;;;;;;;4.88;83.75;102104.75;4972865;28;96655;-42
2022/01/06 11:28:02;;;;;;;0.98;0.68;;;;;;;4.69;83.46;102074.66;4973131;28;96923;-42
2022/01/06 11:30:40;;;;;;;0.35;0.30;;;;;;;4.76;83.73;102086.19;4973772;28;97372;-42
2022/01/06 11:33:05;;;;;;;0.35;0.35;;;;;;;4.68;83.80;102067.53;4972627;28;99753;-42
2022/01/06 11:35:46;;;;;;;0.28;0.22;;;;;;;4.78;83.65;102089.72;4973784;28;96503;-42
2022/01/06 11:38:13;;;;;;;0.35;0.25;;;;;;;4.62;83.61;102064.94;4972625;28;96765;-42